createdAt,value
2023-03-30T00:02:22.933Z,100081.44
2023-03-30T00:04:51.339Z,100068.75
2023-03-30T00:07:19.546Z,100074.09
2023-03-30T00:09:47.085Z,100072.09
2023-03-30T00:12:20.392Z,100065.38
2023-03-30T00:14:51.302Z,100058.59
2023-03-30T00:17:20.721Z,100060.03
2023-03-30T00:19:48.718Z,100055.88
2023-03-30T00:22:17.060Z,100053.38
2023-03-30T00:24:44.611Z,100043.22
2023-03-30T00:27:12.540Z,100041.06
2023-03-30T00:29:40.476Z,100042.19
2023-03-30T00:32:11.668Z,100038.38
2023-03-30T00:34:39.243Z,100042.03
2023-03-30T00:37:06.943Z,100030.88
2023-03-30T00:39:34.972Z,100024.38
2023-03-30T00:42:02.501Z,100020.03
2023-03-30T00:45:15.874Z,100017.72
2023-03-30T00:47:49.482Z,100019.03
2023-03-30T00:50:21.812Z,100017.00
2023-03-30T00:52:52.609Z,100026.97
2023-03-30T00:55:23.126Z,100025.47
2023-03-30T00:57:55.525Z,100023.81
2023-03-30T01:00:23.728Z,100029.44
2023-03-30T01:02:57.217Z,100020.94
2023-03-30T01:05:25.862Z,100009.97
2023-03-30T01:07:54.548Z,100002.13
2023-03-30T01:10:22.998Z,99999.31
2023-03-30T01:12:51.085Z,99991.19
2023-03-30T01:15:21.689Z,99994.50
2023-03-30T01:18:04.008Z,99978.19
2023-03-30T01:21:03.193Z,99977.88
2023-03-30T01:24:15.916Z,99983.03
2023-03-30T01:26:55.149Z,99971.53
2023-03-30T01:29:37.737Z,99953.56
2023-03-30T01:32:34.227Z,99959.56
2023-03-30T01:35:16.633Z,99953.09
2023-03-30T01:38:03.156Z,99957.28
2023-03-30T01:40:38.888Z,99955.78
2023-03-30T01:43:12.079Z,99954.44
2023-03-30T01:45:44.964Z,99951.31
2023-03-30T01:48:16.832Z,99960.97
2023-03-30T01:50:49.276Z,99954.34
2023-03-30T01:53:21.427Z,99958.84
2023-03-30T01:56:00.564Z,99952.50
2023-03-30T01:58:34.978Z,99950.84
2023-03-30T02:01:05.655Z,99958.00
2023-03-30T02:03:37.275Z,99950.00
2023-03-30T02:06:10.527Z,99948.47
2023-03-30T02:08:40.221Z,99948.47
2023-03-30T02:11:09.211Z,99940.00
2023-03-30T02:13:39.615Z,99944.69
2023-03-30T02:16:14.146Z,99942.16
2023-03-30T02:18:46.532Z,99933.50
2023-03-30T02:21:14.151Z,99926.34
2023-03-30T02:23:46.447Z,99928.47
2023-03-30T02:26:15.567Z,99921.34
2023-03-30T02:28:43.250Z,99925.66
2023-03-30T02:31:13.545Z,99925.53
2023-03-30T02:33:53.916Z,99926.38
2023-03-30T02:36:38.617Z,99916.34
2023-03-30T02:39:23.773Z,99920.50
2023-03-30T02:42:11.023Z,99917.34
2023-03-30T02:44:47.952Z,99915.22
2023-03-30T02:47:24.152Z,99905.03
2023-03-30T02:50:01.576Z,99908.88
2023-03-30T02:52:43.053Z,99901.56
2023-03-30T02:55:16.181Z,99903.03
2023-03-30T02:58:03.742Z,99904.19
2023-03-30T03:00:56.897Z,99898.69
2023-03-30T03:03:37.486Z,99904.53
2023-03-30T03:06:09.289Z,99904.34
2023-03-30T03:08:43.860Z,99898.00
2023-03-30T03:11:14.850Z,99892.53
2023-03-30T03:13:44.583Z,99889.88
2023-03-30T03:16:13.597Z,99885.38
2023-03-30T03:18:54.172Z,99881.00
2023-03-30T03:21:21.937Z,99879.53
2023-03-30T03:23:49.493Z,99880.53
2023-03-30T03:26:22.608Z,99878.38
2023-03-30T03:28:52.967Z,99877.19
2023-03-30T03:31:22.635Z,99866.06
2023-03-30T03:33:50.776Z,99867.56
2023-03-30T03:36:25.578Z,99860.06
2023-03-30T03:38:54.289Z,99865.38
2023-03-30T03:41:21.835Z,99854.88
2023-03-30T03:43:50.538Z,99852.16
2023-03-30T03:46:21.797Z,99854.66
2023-03-30T03:48:49.589Z,99861.50
2023-03-30T03:51:17.535Z,99858.50
2023-03-30T03:53:49.584Z,99860.00
2023-03-30T03:56:18.220Z,99864.16
2023-03-30T03:58:45.985Z,99869.31
2023-03-30T04:01:16.560Z,99872.44
2023-03-30T04:03:45.695Z,99872.94
2023-03-30T04:06:13.631Z,99876.25
2023-03-30T04:08:41.735Z,99876.72
2023-03-30T04:11:21.257Z,99869.38
2023-03-30T04:14:06.591Z,99874.88
2023-03-30T04:16:46.161Z,99872.69
2023-03-30T04:22:50.030Z,99862.09
2023-03-30T04:25:41.563Z,99852.16
2023-03-30T04:28:40.117Z,99848.16
2023-03-30T04:31:42.603Z,99852.06
2023-03-30T04:34:24.078Z,99855.88
2023-03-30T04:37:18.163Z,99844.38
2023-03-30T04:40:07.913Z,99842.72
2023-03-30T04:42:52.764Z,99849.19
2023-03-30T04:45:20.576Z,99847.03
2023-03-30T04:48:04.658Z,99833.84
2023-03-30T04:50:54.052Z,99839.69
2023-03-30T04:53:40.150Z,99836.53
2023-03-30T04:56:26.265Z,99855.34
2023-03-30T04:59:10.780Z,99843.66
2023-03-30T05:02:14.705Z,99827.78
2023-03-30T05:05:01.566Z,99820.25
2023-03-30T05:08:01.625Z,99810.56
2023-03-30T05:10:49.798Z,99821.50
2023-03-30T05:13:33.126Z,99818.16
2023-03-30T05:16:30.282Z,99821.13
2023-03-30T05:19:13.247Z,99810.75
2023-03-30T05:22:05.330Z,99801.38
2023-03-30T05:24:56.636Z,99816.88
2023-03-30T05:27:38.542Z,99813.00
2023-03-30T05:30:17.604Z,99806.84
2023-03-30T05:33:10.560Z,99816.50
2023-03-30T05:35:58.572Z,99817.16
2023-03-30T05:38:48.350Z,99811.28
2023-03-30T05:41:32.496Z,99809.44
2023-03-30T05:44:22.449Z,99810.09
2023-03-30T05:47:22.782Z,99813.13
2023-03-30T05:50:16.376Z,99811.47
2023-03-30T05:52:54.053Z,99814.28
2023-03-30T05:55:48.551Z,99806.00
2023-03-30T05:58:26.558Z,99814.47
2023-03-30T06:01:09.363Z,99817.34
2023-03-30T06:03:42.114Z,99822.03
2023-03-30T06:06:12.098Z,99829.69
2023-03-30T06:09:05.082Z,99828.22
2023-03-30T06:11:36.164Z,99836.88
2023-03-30T06:14:13.157Z,99833.38
2023-03-30T06:16:46.801Z,99835.03
2023-03-30T06:19:15.080Z,99829.50
2023-03-30T06:21:42.744Z,99824.66
2023-03-30T06:24:22.649Z,99823.63
2023-03-30T06:26:51.623Z,99820.63
2023-03-30T06:29:21.023Z,99820.75
2023-03-30T06:31:51.194Z,99832.06
2023-03-30T06:34:37.227Z,99838.94
2023-03-30T06:37:05.030Z,99836.91
2023-03-30T06:39:37.237Z,99830.00
2023-03-30T06:42:06.468Z,99838.03
2023-03-30T06:44:49.379Z,99836.50
2023-03-30T06:47:45.626Z,99833.13
2023-03-30T06:50:14.633Z,99834.75
2023-03-30T06:52:54.383Z,99826.22
2023-03-30T06:55:23.398Z,99827.38
2023-03-30T06:57:51.000Z,99836.91
2023-03-30T07:00:20.423Z,99825.78
2023-03-30T07:03:08.761Z,99821.91
2023-03-30T07:05:44.611Z,99824.88
2023-03-30T07:08:18.294Z,99826.19
2023-03-30T07:10:52.606Z,99827.03
2023-03-30T07:13:25.657Z,99829.13
2023-03-30T07:15:53.535Z,99832.16
2023-03-30T07:18:22.478Z,99826.91
2023-03-30T07:20:51.089Z,99833.75
2023-03-30T07:23:27.037Z,99834.69
2023-03-30T07:25:56.917Z,99850.50
2023-03-30T07:28:32.749Z,99831.47
2023-03-30T07:31:06.204Z,99843.28
2023-03-30T07:33:38.453Z,99850.78
2023-03-30T07:36:08.684Z,99859.31
2023-03-30T07:38:38.098Z,99857.03
2023-03-30T07:41:08.531Z,99864.53
2023-03-30T07:43:37.788Z,99854.91
2023-03-30T07:46:06.059Z,99842.16
2023-03-30T07:48:40.503Z,99860.19
2023-03-30T07:51:12.268Z,99861.75
2023-03-30T07:53:49.125Z,99858.47
2023-03-30T07:56:27.674Z,99859.69
2023-03-30T07:59:01.471Z,99861.25
2023-03-30T08:01:35.573Z,99863.28
2023-03-30T08:04:28.201Z,99868.16
2023-03-30T08:06:56.246Z,99874.50
2023-03-30T08:09:24.617Z,99878.56
2023-03-30T08:11:54.146Z,99887.94
2023-03-30T08:14:23.386Z,99889.91
2023-03-30T08:16:51.727Z,99896.78
2023-03-30T08:19:19.302Z,99888.34
2023-03-30T08:21:48.382Z,99886.28
2023-03-30T08:24:16.083Z,99882.88
2023-03-30T08:26:43.820Z,99889.44
2023-03-30T08:29:12.850Z,99899.00
2023-03-30T08:31:42.507Z,99915.28
2023-03-30T08:34:10.581Z,99933.47
2023-03-30T08:36:39.383Z,99938.44
2023-03-30T08:39:14.632Z,99947.22
2023-03-30T08:42:00.441Z,99954.63
2023-03-30T08:44:37.289Z,99970.53
2023-03-30T08:47:07.501Z,99959.50
2023-03-30T08:49:42.251Z,99960.88
2023-03-30T08:52:20.023Z,99961.53
2023-03-30T08:54:51.563Z,99956.84
2023-03-30T08:57:39.018Z,99947.72
2023-03-30T09:00:20.241Z,99944.22
2023-03-30T09:02:51.526Z,99935.03
2023-03-30T09:05:23.920Z,99934.38
2023-03-30T09:08:01.768Z,99933.19
2023-03-30T09:10:36.872Z,99937.53
2023-03-30T09:13:33.464Z,99920.34
2023-03-30T09:16:10.693Z,99921.38
2023-03-30T09:18:46.008Z,99921.00
2023-03-30T09:21:14.671Z,99923.00
2023-03-30T09:23:45.045Z,99923.31
2023-03-30T09:26:21.966Z,99930.47
2023-03-30T09:29:02.572Z,99930.28
2023-03-30T09:31:37.777Z,99934.88
2023-03-30T09:34:09.000Z,99935.00
2023-03-30T09:36:44.212Z,99937.66
2023-03-30T09:39:16.540Z,99944.34
2023-03-30T09:42:11.702Z,99945.63
2023-03-30T09:44:47.697Z,99949.56
2023-03-30T09:47:24.471Z,99947.28
2023-03-30T09:50:00.847Z,99950.97
2023-03-30T09:52:30.288Z,99952.75
2023-03-30T09:54:58.172Z,99937.94
2023-03-30T09:57:30.735Z,99949.31
2023-03-30T10:00:00.216Z,99955.13
2023-03-30T10:02:31.273Z,99957.81
2023-03-30T10:05:02.065Z,99946.56
2023-03-30T10:07:33.145Z,99954.78
2023-03-30T10:10:05.655Z,99943.16
2023-03-30T10:12:35.420Z,99951.44
2023-03-30T10:15:04.226Z,99943.91
2023-03-30T10:17:32.444Z,99953.13
2023-03-30T10:20:18.340Z,99958.81
2023-03-30T10:22:51.574Z,99974.88
2023-03-30T10:25:22.593Z,99967.03
2023-03-30T10:27:55.853Z,99976.78
2023-03-30T10:30:28.217Z,99977.63
2023-03-30T10:32:58.779Z,99976.00
2023-03-30T10:35:33.018Z,99990.81
2023-03-30T10:38:03.317Z,99992.41
2023-03-30T10:40:36.629Z,99991.81
2023-03-30T10:43:14.596Z,99982.22
2023-03-30T10:45:48.006Z,99984.56
2023-03-30T10:48:30.872Z,99985.28
2023-03-30T10:51:08.632Z,99988.31
2023-03-30T10:53:48.602Z,99985.91
2023-03-30T10:56:28.504Z,99984.69
2023-03-30T10:59:25.256Z,99985.72
2023-03-30T11:02:18.044Z,99978.53
2023-03-30T11:04:48.805Z,99973.28
2023-03-30T11:07:25.608Z,99979.13
2023-03-30T11:09:55.695Z,99977.59
2023-03-30T11:12:31.336Z,99969.63
2023-03-30T11:15:06.681Z,99968.63
2023-03-30T11:17:44.096Z,99971.72
2023-03-30T11:20:23.546Z,99976.59
2023-03-30T11:22:59.356Z,99984.81
2023-03-30T11:25:34.132Z,99980.94
2023-03-30T11:28:14.598Z,99974.22
2023-03-30T11:30:45.735Z,99983.72
2023-03-30T11:33:45.008Z,99973.97
2023-03-30T11:36:19.425Z,99988.09
2023-03-30T11:38:53.543Z,99972.13
2023-03-30T11:41:29.539Z,99959.88
2023-03-30T11:43:57.210Z,99968.19
2023-03-30T11:46:36.724Z,99970.28
2023-03-30T11:49:29.636Z,99967.91
2023-03-30T11:52:06.273Z,99965.72
2023-03-30T11:55:19.600Z,99972.56
2023-03-30T11:57:59.664Z,99981.88
2023-03-30T12:00:42.222Z,99983.63
2023-03-30T12:03:17.828Z,99982.63
2023-03-30T12:05:48.260Z,99991.66
2023-03-30T12:08:31.606Z,99987.81
2023-03-30T12:11:04.811Z,99973.13
2023-03-30T12:13:44.578Z,99997.69
2023-03-30T12:16:21.105Z,99986.25
2023-03-30T12:18:59.444Z,99999.50
2023-03-30T12:21:32.607Z,100004.50
2023-03-30T12:24:10.640Z,99992.69
2023-03-30T12:26:39.334Z,99991.81
2023-03-30T12:32:09.720Z,99986.31
2023-03-30T12:34:44.891Z,99986.88
2023-03-30T12:37:15.733Z,99979.78
2023-03-30T12:39:49.640Z,99984.06
2023-03-30T12:42:27.102Z,99982.19
2023-03-30T12:45:09.034Z,99973.31
2023-03-30T12:47:49.301Z,99973.13
2023-03-30T12:50:33.595Z,99983.03
2023-03-30T12:53:15.287Z,99982.00
2023-03-30T12:55:47.496Z,99979.75
2023-03-30T12:58:32.087Z,99978.22
2023-03-30T13:01:17.420Z,99974.16
2023-03-30T13:03:52.377Z,99974.28
2023-03-30T13:06:27.538Z,99975.97
2023-03-30T13:08:57.660Z,99967.16
2023-03-30T13:11:25.484Z,99969.34
2023-03-30T13:13:59.017Z,99957.78
2023-03-30T13:17:08.003Z,99974.34
2023-03-30T13:19:48.445Z,99978.16
2023-03-30T13:22:29.093Z,99974.94
2023-03-30T13:25:00.711Z,99978.56
2023-03-30T13:27:32.684Z,99980.69
2023-03-30T13:30:02.615Z,99977.09
2023-03-30T13:32:46.020Z,100002.25
2023-03-30T13:35:30.266Z,99974.41
2023-03-30T13:38:23.394Z,99979.25
2023-03-30T13:41:04.754Z,99976.00
2023-03-30T13:43:50.106Z,99982.94
2023-03-30T13:46:26.790Z,99971.38
2023-03-30T13:49:06.814Z,99979.91
2023-03-30T13:51:37.384Z,99986.16
2023-03-30T13:54:13.707Z,99997.06
2023-03-30T13:56:45.397Z,99995.41
2023-03-30T13:59:15.052Z,99998.47
2023-03-30T14:01:48.103Z,100005.94
2023-03-30T14:04:16.271Z,100010.13
2023-03-30T14:06:46.993Z,100032.88
2023-03-30T14:09:21.799Z,100019.56
2023-03-30T14:11:51.233Z,100022.38
2023-03-30T14:14:25.283Z,100027.72
2023-03-30T14:16:53.101Z,100048.47
2023-03-30T14:19:25.614Z,100051.84
2023-03-30T14:21:58.157Z,100053.56
2023-03-30T14:24:32.726Z,100070.31
2023-03-30T14:27:06.049Z,100069.84
2023-03-30T14:29:33.764Z,100063.00
2023-03-30T14:34:35.906Z,100060.56
2023-03-30T14:37:06.638Z,100061.75
2023-03-30T14:39:42.361Z,100055.72
2023-03-30T14:42:16.480Z,100050.69
2023-03-30T14:44:45.361Z,100039.38
2023-03-30T14:47:13.393Z,100046.88
2023-03-30T14:49:43.845Z,100045.03
2023-03-30T14:52:17.699Z,100045.38
2023-03-30T14:55:04.339Z,100041.16
2023-03-30T14:57:37.839Z,100039.81
2023-03-30T15:00:18.664Z,100042.84
2023-03-30T15:02:47.584Z,100041.13
2023-03-30T15:05:18.597Z,100034.28
2023-03-30T15:07:49.054Z,100028.94
2023-03-30T15:10:27.141Z,100020.22
2023-03-30T15:12:58.591Z,100017.53
2023-03-30T15:15:54.229Z,100015.31
2023-03-30T15:18:27.061Z,100009.84
2023-03-30T15:20:56.400Z,100003.47
2023-03-30T15:23:25.679Z,100010.97
2023-03-30T15:26:00.860Z,100006.22
2023-03-30T15:28:35.666Z,100004.69
2023-03-30T15:31:03.578Z,99999.94
2023-03-30T15:33:36.782Z,100001.56
2023-03-30T15:36:08.340Z,100005.34
2023-03-30T15:38:44.036Z,99996.50
2023-03-30T15:41:17.622Z,100008.91
2023-03-30T15:43:55.589Z,100006.56
2023-03-30T15:46:23.746Z,100006.38
2023-03-30T15:48:54.712Z,100006.06
2023-03-30T15:53:59.671Z,99997.19
2023-03-30T15:56:35.650Z,100004.38
2023-03-30T15:59:03.482Z,100007.50
2023-03-30T16:01:48.677Z,100004.00
2023-03-30T16:04:21.399Z,99992.66
2023-03-30T16:06:49.179Z,99994.31
2023-03-30T16:09:16.848Z,99996.50
2023-03-30T16:11:47.172Z,100004.06
2023-03-30T16:14:19.964Z,100010.59
2023-03-30T16:16:52.601Z,100015.47
2023-03-30T16:19:21.023Z,100024.03
2023-03-30T16:21:48.626Z,100037.72
2023-03-30T16:24:17.104Z,100049.75
2023-03-30T16:26:46.726Z,100058.72
2023-03-30T16:29:22.284Z,100019.06
2023-03-30T16:31:50.450Z,100043.66
2023-03-30T16:34:18.284Z,100028.69
2023-03-30T16:36:46.104Z,100032.38
2023-03-30T16:39:19.604Z,100032.53
2023-03-30T16:41:50.547Z,100036.38
2023-03-30T16:44:22.278Z,100030.22
2023-03-30T16:46:50.243Z,100030.06
2023-03-30T16:49:21.445Z,100026.22
2023-03-30T16:51:49.608Z,100020.06
2023-03-30T16:54:30.536Z,100027.25
2023-03-30T16:57:02.740Z,100030.59
2023-03-30T16:59:32.399Z,100035.41
2023-03-30T17:02:00.920Z,100034.94
2023-03-30T17:04:28.531Z,100032.41
2023-03-30T17:06:56.324Z,100038.09
2023-03-30T17:09:24.339Z,100032.22
2023-03-30T17:11:51.895Z,100042.41
2023-03-30T17:14:23.137Z,100037.41
2023-03-30T17:16:51.233Z,100047.25
2023-03-30T17:19:18.914Z,100045.88
2023-03-30T17:21:46.440Z,100041.72
2023-03-30T17:24:16.369Z,100035.72
2023-03-30T17:26:44.568Z,100036.06
2023-03-30T17:29:12.219Z,100038.88
2023-03-30T17:31:45.219Z,100040.03
2023-03-30T17:34:13.288Z,100035.06
2023-03-30T17:36:40.839Z,100033.38
2023-03-30T17:39:10.264Z,100030.72
2023-03-30T17:41:38.111Z,100037.38
2023-03-30T17:44:06.477Z,100033.88
2023-03-30T17:46:35.238Z,100040.34
2023-03-30T17:49:04.267Z,100042.53
2023-03-30T17:51:31.820Z,100045.38
2023-03-30T17:53:59.656Z,100053.50
2023-03-30T17:56:28.729Z,100044.84
2023-03-30T17:58:56.256Z,100043.50
2023-03-30T18:01:24.250Z,100046.16
2023-03-30T18:03:52.750Z,100048.31
2023-03-30T18:06:21.737Z,100048.63
2023-03-30T18:08:49.619Z,100061.13
2023-03-30T18:11:17.208Z,100057.94
2023-03-30T18:13:45.800Z,100055.78
2023-03-30T18:16:13.833Z,100059.13
2023-03-30T18:18:41.629Z,100051.44
2023-03-30T18:21:11.425Z,100051.75
2023-03-30T18:23:40.570Z,100054.25
2023-03-30T18:26:11.987Z,100047.56
2023-03-30T18:28:43.575Z,100054.59
2023-03-30T18:31:11.900Z,100058.94
2023-03-30T18:33:40.175Z,100057.25
2023-03-30T18:36:12.547Z,100060.91
2023-03-30T18:38:42.606Z,100052.03
2023-03-30T18:41:12.320Z,100057.53
2023-03-30T18:43:40.653Z,100049.72
2023-03-30T18:46:11.952Z,100044.69
2023-03-30T18:48:39.746Z,100049.88
2023-03-30T18:51:10.836Z,100054.38
2023-03-30T18:53:38.401Z,100058.34
2023-03-30T18:56:07.791Z,100054.31
2023-03-30T18:58:41.548Z,100062.31
2023-03-30T19:01:12.622Z,100060.81
2023-03-30T19:03:41.621Z,100060.13
2023-03-30T19:06:13.623Z,100069.94
2023-03-30T19:08:43.594Z,100075.78
2023-03-30T19:11:14.721Z,100071.28
2023-03-30T19:13:42.325Z,100078.09
2023-03-30T19:16:10.272Z,100075.44
2023-03-30T19:18:37.871Z,100075.09
2023-03-30T19:21:06.765Z,100076.09
2023-03-30T19:23:34.572Z,100088.09
2023-03-30T19:26:03.632Z,100094.09
2023-03-30T19:28:33.258Z,100080.78
2023-03-30T19:31:05.010Z,100087.09
2023-03-30T19:33:32.782Z,100088.09
2023-03-30T19:36:00.437Z,100086.56
2023-03-30T19:38:28.150Z,100075.91
2023-03-30T19:41:00.681Z,100073.25
2023-03-30T19:43:28.833Z,100071.59
2023-03-30T19:45:58.697Z,100069.09
2023-03-30T19:48:27.648Z,100067.56
2023-03-30T19:50:55.243Z,100064.91
2023-03-30T19:53:23.168Z,100070.72
2023-03-30T19:55:50.909Z,100077.38
2023-03-30T19:58:19.121Z,100065.69
2023-03-30T20:00:49.341Z,100064.88
2023-03-30T20:03:18.705Z,100061.38
2023-03-30T20:05:50.796Z,100062.38
2023-03-30T20:08:24.306Z,100060.72
2023-03-30T20:10:53.105Z,100059.88
2023-03-30T20:13:21.925Z,100060.72
2023-03-30T20:15:49.732Z,100058.19
2023-03-30T20:18:20.505Z,100062.66
2023-03-30T20:20:48.245Z,100060.72
2023-03-30T20:23:15.935Z,100057.88
2023-03-30T20:25:49.052Z,100045.56
2023-03-30T20:28:17.687Z,100040.22
2023-03-30T20:30:47.167Z,100041.06
2023-03-30T20:33:15.228Z,100042.06
2023-03-30T20:35:44.153Z,100026.56
2023-03-30T20:38:11.693Z,100036.41
2023-03-30T20:40:39.274Z,100029.78
2023-03-30T20:43:10.061Z,100037.22
2023-03-30T20:45:45.793Z,100025.75
2023-03-30T20:48:25.817Z,100030.06
2023-03-30T20:50:55.139Z,100027.41
2023-03-30T20:53:23.864Z,100017.59
2023-03-30T20:55:51.619Z,100021.25
2023-03-30T20:58:22.077Z,100018.28
2023-03-30T21:00:51.800Z,100019.78
2023-03-30T21:03:20.216Z,100004.81
2023-03-30T21:05:48.319Z,100007.63
2023-03-30T21:08:17.349Z,100003.59
2023-03-30T21:10:44.971Z,100002.78
2023-03-30T21:13:14.970Z,100002.94
2023-03-30T21:15:44.708Z,100002.94
2023-03-30T21:18:13.090Z,99995.09
2023-03-30T21:20:40.742Z,99998.75
2023-03-30T21:23:08.672Z,99997.25
2023-03-30T21:25:37.648Z,99992.09
2023-03-30T21:28:06.036Z,99987.25
2023-03-30T21:30:35.630Z,99984.88
2023-03-30T21:33:03.740Z,99979.56
2023-03-30T21:35:31.430Z,99975.06
2023-03-30T21:37:59.022Z,99981.72
2023-03-30T21:40:26.621Z,99974.41
2023-03-30T21:42:56.417Z,99983.03
2023-03-30T21:45:24.614Z,99980.38
2023-03-30T21:47:52.350Z,99978.03
2023-03-30T21:50:20.249Z,99982.19
2023-03-30T21:52:48.217Z,99977.88
2023-03-30T21:55:16.665Z,99975.69
2023-03-30T21:57:44.270Z,99976.69
2023-03-30T22:00:15.482Z,99973.88
2023-03-30T22:02:43.264Z,99967.78
2023-03-30T22:05:11.109Z,99968.25
2023-03-30T22:07:39.065Z,99967.25
2023-03-30T22:10:07.110Z,99969.06
2023-03-30T22:12:35.177Z,99975.06
2023-03-30T22:15:02.730Z,99975.41
2023-03-30T22:17:41.973Z,99963.28
2023-03-30T22:20:11.365Z,99955.75
2023-03-30T22:22:39.051Z,99954.13
2023-03-30T22:25:07.140Z,99953.09
2023-03-30T22:27:35.941Z,99944.94
2023-03-30T22:30:03.684Z,99937.13
2023-03-30T22:32:34.692Z,99944.75
2023-03-30T22:35:02.552Z,99938.75
2023-03-30T22:37:31.342Z,99930.94
2023-03-30T22:39:58.867Z,99927.75
2023-03-30T22:42:26.977Z,99923.44
2023-03-30T22:44:54.568Z,99930.88
2023-03-30T22:47:22.279Z,99932.91
2023-03-30T22:49:52.766Z,99922.41
2023-03-30T22:52:22.246Z,99930.03
2023-03-30T22:54:49.813Z,99924.19
2023-03-30T22:57:17.551Z,99920.69
2023-03-30T22:59:45.301Z,99928.00
2023-03-30T23:02:12.978Z,99927.53
2023-03-30T23:04:40.829Z,99921.31
2023-03-30T23:07:10.286Z,99917.16
2023-03-30T23:09:38.617Z,99913.66
2023-03-30T23:12:06.814Z,99914.97
2023-03-30T23:14:35.693Z,99911.47
2023-03-30T23:17:03.409Z,99909.59
2023-03-30T23:19:31.477Z,99907.78
2023-03-30T23:21:59.112Z,99899.28
2023-03-30T23:24:28.169Z,99896.09
2023-03-30T23:26:55.747Z,99891.75
2023-03-30T23:29:25.462Z,99885.94
2023-03-30T23:31:53.103Z,99884.25
2023-03-30T23:34:22.749Z,99871.44
2023-03-30T23:36:50.964Z,99869.91
2023-03-30T23:39:20.518Z,99878.22
2023-03-30T23:41:49.709Z,99863.25
2023-03-30T23:44:17.320Z,99871.06
2023-03-30T23:46:44.897Z,99860.59
2023-03-30T23:49:12.542Z,99863.56
2023-03-30T23:51:40.259Z,99855.75
2023-03-30T23:54:07.956Z,99853.25
2023-03-30T23:56:36.923Z,99849.97
2023-03-30T23:59:06.441Z,99849.91
